Time;durP1;ratioP1;P1;durP2;ratioP2;P2;SDS_P1;SDS_P2;PMS_P1;PMS_P2;Temp;Humidity;BMP_temperature;BMP_pressure;BME280_temperature;BME280_humidity;BME280_pressure;Samples;Min_cycle;Max_cycle;Signal;HPM_P1;HPM_P2
2021/01/04 00:00:52;;;;;;;19.63;18.30;;;3.90;82.50;;;;;;5015670;28;20211;-65
2021/01/04 00:03:29;;;;;;;24.40;22.83;;;3.90;82.30;;;;;;5015533;28;20527;-65
2021/01/04 00:06:05;;;;;;;24.42;22.83;;;3.90;90.10;;;;;;5015535;28;20177;-65
2021/01/04 00:09:00;;;;;;;23.40;21.75;;;3.90;81.40;;;;;;5015108;28;20210;-65
2021/01/04 00:11:53;;;;;;;28.90;27.40;;;3.90;84.20;;;;;;5015472;28;20185;-64
2021/01/04 00:14:56;;;;;;;31.00;29.30;;;3.90;86.50;;;;;;5015353;28;20217;-65
2021/01/04 00:17:43;;;;;;;22.90;21.45;;;3.90;89.20;;;;;;5014821;28;20253;-65
2021/01/04 00:20:27;;;;;;;20.92;19.23;;;3.80;93.90;;;;;;5014924;28;20171;-64
2021/01/04 00:23:24;;;;;;;24.73;23.33;;;3.80;92.10;;;;;;5015092;28;20178;-65
2021/01/04 00:26:12;;;;;;;20.77;19.42;;;3.80;93.00;;;;;;5014955;28;20197;-65
2021/01/04 00:28:39;;;;;;;22.77;21.20;;;3.70;93.80;;;;;;5004095;28;20195;-64
2021/01/04 00:31:13;;;;;;;32.38;30.70;;;3.60;94.80;;;;;;5015025;28;20168;-65
2021/01/04 00:33:41;;;;;;;25.38;23.67;;;3.60;96.50;;;;;;5014994;28;20178;-65
2021/01/04 00:36:32;;;;;;;25.85;24.08;;;3.60;97.40;;;;;;5014587;28;20172;-65
2021/01/04 00:39:27;;;;;;;23.95;22.30;;;3.60;98.20;;;;;;5014379;28;20295;-65
2021/01/04 00:42:11;;;;;;;19.35;17.42;;;3.70;97.60;;;;;;5014963;28;20665;-65
2021/01/04 00:44:59;;;;;;;25.00;23.40;;;3.60;97.90;;;;;;5014913;28;20187;-65
2021/01/04 00:47:44;;;;;;;22.95;21.13;;;3.60;97.80;;;;;;5014290;28;20187;-64
2021/01/04 00:50:38;;;;;;;26.15;24.45;;;3.60;98.70;;;;;;5014731;28;20241;-65
2021/01/04 00:53:12;;;;;;;24.65;23.15;;;3.60;98.10;;;;;;5004310;28;20183;-65
2021/01/04 00:56:05;;;;;;;25.90;24.30;;;3.60;98.30;;;;;;5014918;28;20289;-65
2021/01/04 00:59:10;;;;;;;25.42;23.52;;;3.50;98.20;;;;;;5014276;28;20190;-64
2021/01/04 01:02:09;;;;;;;24.90;22.95;;;3.50;98.10;;;;;;5014382;28;20206;-65
2021/01/04 01:04:55;;;;;;;33.65;31.65;;;3.50;98.50;;;;;;5014628;28;20167;-65
2021/01/04 01:07:45;;;;;;;32.40;30.00;;;3.50;97.90;;;;;;5013917;28;20202;-65
2021/01/04 01:10:13;;;;;;;26.45;24.75;;;3.60;96.50;;;;;;5014097;28;20206;-64
2021/01/04 01:12:48;;;;;;;25.58;23.77;;;3.60;95.70;;;;;;5014512;28;20206;-65
2021/01/04 01:15:23;;;;;;;23.20;21.55;;;3.60;94.80;;;;;;5014304;28;20163;-65
2021/01/04 01:17:49;;;;;;;26.98;25.35;;;3.60;94.30;;;;;;5045652;28;20198;-64
2021/01/04 01:20:19;;;;;;;22.00;20.47;;;3.60;94.30;;;;;;5013932;28;20175;-65
2021/01/04 01:22:45;;;;;;;30.00;27.80;;;3.60;97.30;;;;;;5014093;28;20186;-64
2021/01/04 01:25:16;;;;;;;29.90;27.90;;;3.60;92.80;;;;;;5013963;28;20182;-65
2021/01/04 01:28:09;;;;;;;37.03;33.83;;;3.60;92.40;;;;;;5013690;28;20225;-65
2021/01/04 01:30:58;;;;;;;27.60;25.50;;;3.60;91.80;;;;;;5014160;28;20260;-65
2021/01/04 01:33:48;;;;;;;31.70;29.52;;;3.60;91.00;;;;;;5012108;28;20195;-65
2021/01/04 01:36:41;;;;;;;35.20;33.33;;;3.60;90.40;;;;;;5013868;28;20202;-65
2021/01/04 01:39:19;;;;;;;33.72;31.48;;;3.60;90.10;;;;;;5013666;28;20191;-65
2021/01/04 01:42:20;;;;;;;34.83;32.95;;;3.60;89.70;;;;;;5013921;28;20276;-65
2021/01/04 01:45:11;;;;;;;36.88;34.47;;;3.60;93.30;;;;;;5012559;28;20187;-65
2021/01/04 01:47:47;;;;;;;29.02;27.20;;;3.50;89.50;;;;;;5013558;28;20665;-66
2021/01/04 01:50:43;;;;;;;34.35;32.53;;;3.50;89.40;;;;;;5013722;28;20784;-65
2021/01/04 01:53:50;;;;;;;38.92;36.67;;;3.60;85.90;;;;;;5013745;28;20641;-65
2021/01/04 01:56:27;;;;;;;34.40;32.15;;;3.60;86.40;;;;;;5013574;28;20170;-65
2021/01/04 01:59:19;;;;;;;23.40;21.67;;;3.60;85.00;;;;;;5045396;28;20198;-65
2021/01/04 02:02:12;;;;;;;26.17;24.48;;;3.60;82.20;;;;;;5013912;28;20209;-65
2021/01/04 02:04:49;;;;;;;28.08;26.13;;;3.60;81.90;;;;;;5016637;28;20183;-65
2021/01/04 02:07:27;;;;;;;28.63;26.50;;;3.60;79.60;;;;;;5017229;28;20206;-65
2021/01/04 02:10:00;;;;;;;28.50;26.70;;;3.60;76.70;;;;;;5017711;28;20152;-65
2021/01/04 02:12:39;;;;;;;25.50;23.80;;;3.60;77.20;;;;;;5017662;28;20167;-65
2021/01/04 02:15:25;;;;;;;29.73;27.83;;;3.60;77.60;;;;;;5017583;28;20163;-65
2021/01/04 02:18:11;;;;;;;29.23;27.33;;;3.60;74.80;;;;;;5017143;28;20191;-65
2021/01/04 02:21:10;;;;;;;25.38;23.80;;;3.60;73.50;;;;;;5017379;28;20187;-65
2021/01/04 02:24:11;;;;;;;26.10;24.50;;;3.60;72.20;;;;;;5017226;28;20167;-65
2021/01/04 02:26:41;;;;;;;34.03;31.48;;;3.60;70.30;;;;;;5017105;28;20171;-65
2021/01/04 02:29:13;;;;;;;26.55;25.10;;;3.70;68.60;;;;;;5017026;28;20191;-65
2021/01/04 02:31:42;;;;;;;27.25;25.13;;;3.70;67.50;;;;;;5017235;28;20242;-65
2021/01/04 02:34:09;;;;;;;24.30;22.55;;;3.70;64.30;;;;;;5017189;28;20584;-65
2021/01/04 02:36:42;;;;;;;26.30;24.35;;;3.70;63.00;;;;;;5016862;28;20167;-65
2021/01/04 02:39:12;;;;;;;24.45;22.80;;;3.80;63.40;;;;;;5016786;28;20195;-65
2021/01/04 02:41:57;;;;;;;27.67;25.77;;;3.70;62.30;;;;;;5016781;28;20657;-65
2021/01/04 02:44:24;;;;;;;32.72;30.52;;;3.70;62.30;;;;;;5017238;28;20229;-65
2021/01/04 02:47:03;;;;;;;27.92;26.23;;;3.70;59.90;;;;;;5016491;28;20202;-64
2021/01/04 02:49:48;;;;;;;27.48;25.60;;;3.70;59.30;;;;;;5048545;28;20160;-65
2021/01/04 02:52:31;;;;;;;26.80;24.92;;;3.70;57.80;;;;;;5016866;28;20175;-65
2021/01/04 02:55:07;;;;;;;32.85;30.75;;;3.70;57.00;;;;;;5016733;28;20170;-65
2021/01/04 02:57:37;;;;;;;25.77;24.00;;;3.70;57.00;;;;;;5016398;28;20289;-65
2021/01/04 03:00:10;;;;;;;29.40;27.50;;;3.70;55.90;;;;;;5016502;28;20167;-65
2021/01/04 03:02:43;;;;;;;29.33;27.23;;;3.70;54.10;;;;;;5016670;28;20187;-65
2021/01/04 03:05:16;;;;;;;27.77;26.20;;;3.80;53.80;;;;;;5016661;28;20175;-65
2021/01/04 03:07:42;;;;;;;30.10;28.30;;;3.80;54.40;;;;;;5015962;28;20229;-65
2021/01/04 03:10:26;;;;;;;28.17;26.47;;;3.80;53.40;;;;;;5016413;28;20665;-65
2021/01/04 03:13:10;;;;;;;33.63;31.50;;;3.80;50.40;;;;;;5016576;28;20201;-65
2021/01/04 03:15:47;;;;;;;28.95;27.42;;;3.80;49.60;;;;;;5015593;28;20163;-65
2021/01/04 03:18:26;;;;;;;26.30;24.75;;;3.90;49.10;;;;;;5016170;28;20202;-64
2021/01/04 03:20:53;;;;;;;32.83;30.83;;;3.90;49.40;;;;;;5016203;28;20198;-65
2021/01/04 03:23:19;;;;;;;30.02;28.38;;;3.90;47.10;;;;;;5016246;28;20171;-64
2021/01/04 03:25:56;;;;;;;30.48;28.92;;;3.90;46.40;;;;;;5015972;28;20171;-65
2021/01/04 03:28:28;;;;;;;22.88;21.20;;;4.00;47.10;;;;;;5015930;28;20201;-65
2021/01/04 03:30:54;;;;;;;27.92;26.20;;;3.90;46.00;;;;;;5016081;28;20199;-65
2021/01/04 03:33:20;;;;;;;28.30;26.27;;;4.00;46.40;;;;;;5016108;28;20183;-65
2021/01/04 03:35:47;;;;;;;22.83;21.52;;;4.00;46.80;;;;;;5015674;28;20168;-65
2021/01/04 03:38:14;;;;;;;27.02;22.40;;;4.00;46.70;;;;;;5047781;28;20679;-65
2021/01/04 03:40:39;;;;;;;32.58;30.67;;;4.10;44.80;;;;;;5015684;28;20256;-64
2021/01/04 03:43:05;;;;;;;22.00;20.70;;;4.10;44.90;;;;;;5015942;28;20164;-65
2021/01/04 03:45:31;;;;;;;29.17;27.07;;;4.10;51.60;;;;;;5015556;28;20629;-65
2021/01/04 03:47:57;;;;;;;31.77;29.87;;;4.10;45.50;;;;;;5015701;28;20191;-64
2021/01/04 03:50:22;;;;;;;27.47;25.77;;;4.10;45.30;;;;;;5015647;28;20200;-64
2021/01/04 03:52:48;;;;;;;24.50;22.93;;;4.10;43.10;;;;;;5015685;28;20409;-64
2021/01/04 03:55:16;;;;;;;27.97;26.57;;;4.10;42.70;;;;;;5015467;28;20398;-65
2021/01/04 03:57:42;;;;;;;22.45;20.67;;;4.20;42.10;;;;;;5015263;28;20183;-65
2021/01/04 04:00:08;;;;;;;25.43;23.77;;;4.20;42.80;;;;;;5047084;28;20171;-65
2021/01/04 04:02:34;;;;;;;20.95;19.77;;;4.20;42.80;;;;;;5015500;28;20305;-65
2021/01/04 04:05:00;;;;;;;30.73;29.10;;;4.20;44.20;;;;;;5015468;28;20172;-65
2021/01/04 04:07:26;;;;;;;26.07;24.50;;;4.20;43.70;;;;;;5014913;28;20209;-65
2021/01/04 04:09:52;;;;;;;28.33;26.63;;;4.20;42.80;;;;;;5015209;28;20581;-65
2021/01/04 04:12:17;;;;;;;30.50;29.03;;;4.20;43.50;;;;;;5015179;28;20175;-65
2021/01/04 04:14:48;;;;;;;29.33;27.93;;;4.20;43.90;;;;;;5015179;28;20633;-65
2021/01/04 04:17:15;;;;;;;26.70;25.40;;;4.20;43.90;;;;;;5014928;28;20222;-65
2021/01/04 04:19:47;;;;;;;26.27;24.92;;;4.20;45.20;;;;;;5014970;28;20171;-64
2021/01/04 04:22:13;;;;;;;25.63;24.58;;;4.20;43.30;;;;;;5015173;28;20206;-65
2021/01/04 04:24:40;;;;;;;26.10;25.00;;;4.20;46.30;;;;;;5014960;28;20180;-64
2021/01/04 04:27:07;;;;;;;26.55;25.15;;;4.20;45.10;;;;;;5013615;28;20407;-65
2021/01/04 04:29:33;;;;;;;24.60;22.70;;;4.20;45.90;;;;;;5015167;28;20526;-64
2021/01/04 04:31:59;;;;;;;23.92;22.80;;;4.20;44.20;;;;;;5015010;28;20704;-64
2021/01/04 04:34:25;;;;;;;21.57;20.37;;;4.10;45.70;;;;;;5014967;28;20179;-64
2021/01/04 04:36:50;;;;;;;24.23;23.10;;;4.20;46.90;;;;;;5014678;28;20239;-66
2021/01/04 04:39:16;;;;;;;24.00;22.30;;;4.20;47.00;;;;;;5014856;28;20258;-64
2021/01/04 04:41:48;;;;;;;28.17;26.77;;;4.20;46.70;;;;;;5014647;28;20214;-65
2021/01/04 04:44:28;;;;;;;20.08;18.98;;;4.30;48.40;;;;;;5014885;28;20410;-65
2021/01/04 04:47:15;;;;;;;23.85;22.75;;;4.20;50.20;;;;;;5014304;28;20210;-64
2021/01/04 04:50:14;;;;;;;27.40;26.20;;;4.30;51.80;;;;;;5014876;28;20619;-64
2021/01/04 04:53:00;;;;;;;19.05;17.80;;;4.20;57.80;;;;;;5014656;28;20271;-64
2021/01/04 04:55:59;;;;;;;24.40;23.10;;;4.20;51.00;;;;;;5014614;28;20265;-65
2021/01/04 04:58:36;;;;;;;23.05;22.08;;;4.20;51.70;;;;;;5014436;28;20653;-65
2021/01/04 05:01:42;;;;;;;19.45;18.38;;;4.20;52.70;;;;;;5014454;28;20661;-65
2021/01/04 05:04:35;;;;;;;19.77;18.95;;;4.20;54.00;;;;;;5014479;28;20660;-65
2021/01/04 05:07:24;;;;;;;20.33;19.23;;;4.20;58.80;;;;;;5014065;28;20167;-65
2021/01/04 05:09:57;;;;;;;20.13;19.17;;;4.20;53.70;;;;;;5003557;28;20549;-65
2021/01/04 05:12:29;;;;;;;22.70;21.58;;;4.20;56.10;;;;;;5014170;28;20174;-65
2021/01/04 05:15:00;;;;;;;22.30;21.30;;;4.20;55.50;;;;;;5014150;28;20629;-65
2021/01/04 05:17:50;;;;;;;22.83;21.83;;;4.30;56.30;;;;;;5013971;28;20183;-65
2021/01/04 05:20:16;;;;;;;16.88;16.08;;;4.30;56.30;;;;;;5013895;28;20171;-65
2021/01/04 05:22:47;;;;;;;14.77;14.07;;;4.20;56.30;;;;;;5014063;28;20171;-64
2021/01/04 05:25:45;;;;;;;19.80;18.60;;;4.20;55.50;;;;;;5045825;28;20189;-64
2021/01/04 05:28:22;;;;;;;22.20;21.30;;;4.20;57.80;;;;;;5013885;28;20191;-64
2021/01/04 05:31:33;;;;;;;18.73;18.02;;;4.20;58.40;;;;;;5013903;28;20167;-65
2021/01/04 05:34:46;;;;;;;31.13;29.92;;;4.20;57.50;;;;;;5008501;28;20668;-64
2021/01/04 05:37:42;;;;;;;27.00;26.05;;;4.20;58.20;;;;;;4991885;28;20290;-65
2021/01/04 05:40:43;;;;;;;27.05;26.08;;;4.20;61.60;;;;;;4992201;28;20172;-65
2021/01/04 05:43:24;;;;;;;21.25;20.45;;;4.30;61.30;;;;;;5000306;28;20216;-65
2021/01/04 05:46:07;;;;;;;22.67;21.83;;;4.30;61.00;;;;;;5013717;28;20175;-64
2021/01/04 05:48:47;;;;;;;16.05;15.10;;;4.30;60.70;;;;;;5013664;28;20191;-65
2021/01/04 05:51:29;;;;;;;19.88;19.17;;;4.30;64.70;;;;;;5013932;28;20641;-64
2021/01/04 05:53:55;;;;;;;21.58;20.58;;;4.30;63.30;;;;;;5013767;28;20191;-65
2021/01/04 05:56:26;;;;;;;22.10;21.30;;;4.30;63.40;;;;;;5013425;28;20178;-65
2021/01/04 05:59:04;;;;;;;18.90;18.30;;;4.30;63.80;;;;;;5013601;28;20199;-64
2021/01/04 06:01:29;;;;;;;21.17;20.15;;;4.30;63.10;;;;;;5013556;28;20198;-64
2021/01/04 06:04:07;;;;;;;21.37;20.27;;;4.30;65.50;;;;;;5045537;28;20178;-65
2021/01/04 06:06:55;;;;;;;19.48;18.58;;;4.30;73.20;;;;;;5013624;28;20182;-64
2021/01/04 06:09:22;;;;;;;19.40;18.58;;;4.40;67.20;;;;;;5013650;28;20533;-65
2021/01/04 06:12:02;;;;;;;22.27;21.38;;;4.40;70.00;;;;;;5013599;28;20573;-64
2021/01/04 06:14:31;;;;;;;20.33;19.58;;;4.40;67.00;;;;;;5013644;28;20175;-65
2021/01/04 06:17:19;;;;;;;26.65;25.45;;;4.40;67.30;;;;;;5013169;28;20176;-65
2021/01/04 06:19:51;;;;;;;21.50;20.80;;;4.40;69.60;;;;;;5013274;28;20179;-64
2021/01/04 06:22:17;;;;;;;21.95;20.95;;;4.40;66.80;;;;;;5013577;28;20207;-65
2021/01/04 06:24:45;;;;;;;16.10;15.10;;;4.40;68.40;;;;;;5045336;28;20262;-65
2021/01/04 06:27:15;;;;;;;19.25;18.45;;;4.40;70.40;;;;;;5013095;28;20191;-65
2021/01/04 06:29:50;;;;;;;17.05;16.10;;;4.40;72.70;;;;;;5013708;28;20159;-65
2021/01/04 06:32:29;;;;;;;21.92;21.13;;;4.40;79.50;;;;;;5013387;28;20174;-65
2021/01/04 06:34:59;;;;;;;23.30;22.40;;;4.40;83.00;;;;;;5013571;28;20522;-65
2021/01/04 06:37:28;;;;;;;17.85;17.05;;;4.30;87.10;;;;;;5012965;28;20310;-64
2021/01/04 06:40:11;;;;;;;23.25;22.08;;;4.20;90.00;;;;;;5013437;28;20175;-65
2021/01/04 06:42:39;;;;;;;21.15;20.25;;;4.30;90.80;;;;;;5013378;28;20662;-65
2021/01/04 06:45:10;;;;;;;17.27;16.27;;;4.30;91.50;;;;;;5013312;28;20176;-65
2021/01/04 06:47:47;;;;;;;23.00;22.08;;;4.20;91.70;;;;;;5013083;28;20195;-64
2021/01/04 06:50:21;;;;;;;22.90;21.83;;;4.20;93.00;;;;;;5013722;28;20523;-64
2021/01/04 06:53:05;;;;;;;26.10;25.20;;;4.10;94.00;;;;;;5016941;28;20223;-64
2021/01/04 06:55:58;;;;;;;21.42;20.52;;;4.00;94.40;;;;;;5016595;28;20503;-65
2021/01/04 06:58:49;;;;;;;26.95;24.92;;;4.00;96.10;;;;;;5016766;28;20191;-64
2021/01/04 07:01:36;;;;;;;22.15;21.20;;;3.90;97.30;;;;;;5016522;28;20195;-65
2021/01/04 07:04:15;;;;;;;18.80;18.00;;;3.90;97.90;;;;;;5016632;28;20298;-64
2021/01/04 07:07:12;;;;;;;22.35;21.35;;;3.90;98.80;;;;;;5016348;28;20159;-64
2021/01/04 07:09:49;;;;;;;19.92;19.02;;;3.80;99.40;;;;;;5016497;28;20175;-64
2021/01/04 07:12:31;;;;;;;25.33;24.23;;;3.80;99.90;;;;;;5016479;28;20177;-64
2021/01/04 07:15:21;;;;;;;27.92;26.63;;;3.80;99.90;;;;;;5016455;28;20179;-64
2021/01/04 07:18:24;;;;;;;24.65;23.55;;;3.80;99.90;;;;;;5016101;28;20206;-64
2021/01/04 07:21:13;;;;;;;29.95;28.67;;;3.70;99.90;;;;;;5016246;28;20199;-64
2021/01/04 07:23:46;;;;;;;26.95;25.90;;;3.80;99.90;;;;;;5016129;28;20183;-65
2021/01/04 07:26:53;;;;;;;23.23;22.33;;;3.90;99.90;;;;;;5016061;28;20167;-65
2021/01/04 07:29:22;;;;;;;23.75;22.58;;;3.90;99.90;;;;;;5004144;28;20187;-65
2021/01/04 07:32:01;;;;;;;26.35;25.08;;;3.90;99.90;;;;;;5015920;28;20174;-64
2021/01/04 07:34:54;;;;;;;27.13;25.83;;;3.80;99.90;;;;;;5016150;28;20225;-64
2021/01/04 07:37:35;;;;;;;25.33;24.10;;;3.80;99.90;;;;;;5015883;28;20222;-65
2021/01/04 07:40:07;;;;;;;28.92;27.20;;;3.80;99.90;;;;;;5016025;28;20255;-65
2021/01/04 07:42:38;;;;;;;23.40;22.48;;;3.80;99.90;;;;;;5015946;28;20199;-64
2021/01/04 07:45:07;;;;;;;28.23;27.02;;;3.80;99.90;;;;;;5015933;28;20495;-64
2021/01/04 07:47:42;;;;;;;27.98;26.98;;;3.80;99.90;;;;;;5015507;28;20295;-65
2021/01/04 07:50:51;;;;;;;27.92;26.92;;;3.80;99.90;;;;;;5014301;28;20174;-65
2021/01/04 07:53:35;;;;;;;33.40;32.05;;;3.90;99.90;;;;;;4994017;28;20638;-64
2021/01/04 07:56:21;;;;;;;32.05;30.95;;;3.90;99.90;;;;;;5014782;28;20179;-64
2021/01/04 07:59:32;;;;;;;32.65;31.33;;;3.80;99.90;;;;;;5015450;28;20213;-64
2021/01/04 08:02:15;;;;;;;26.00;24.92;;;3.80;99.90;;;;;;5014009;28;20219;-64
2021/01/04 08:04:53;;;;;;;27.23;25.92;;;3.80;99.90;;;;;;5015595;28;20168;-64
2021/01/04 08:07:23;;;;;;;28.92;27.83;;;3.80;99.90;;;;;;5014952;28;20198;-64
2021/01/04 08:10:21;;;;;;;30.33;29.13;;;3.70;99.90;;;;;;5015418;28;20166;-64
2021/01/04 08:13:07;;;;;;;33.15;31.73;;;3.70;99.90;;;;;;4996158;28;20211;-65
2021/01/04 08:15:36;;;;;;;29.50;27.58;;;3.80;99.90;;;;;;5015189;28;20661;-65
2021/01/04 08:18:11;;;;;;;31.30;30.02;;;3.70;99.90;;;;;;5015003;28;20209;-65
2021/01/04 08:20:50;;;;;;;35.88;34.38;;;3.80;99.90;;;;;;5015150;28;20241;-64
2021/01/04 08:23:18;;;;;;;25.83;24.73;;;3.80;99.90;;;;;;5015546;28;20516;-65
2021/01/04 08:25:59;;;;;;;23.85;22.95;;;3.80;99.90;;;;;;5014936;28;20723;-64
2021/01/04 08:28:47;;;;;;;23.08;22.13;;;3.80;99.90;;;;;;5015035;28;20285;-64
2021/01/04 08:31:37;;;;;;;27.63;26.63;;;3.80;99.90;;;;;;5015079;28;20178;-64
2021/01/04 08:34:06;;;;;;;21.38;20.17;;;3.70;99.90;;;;;;5046661;28;20727;-64
2021/01/04 08:36:57;;;;;;;25.42;24.08;;;3.70;99.90;;;;;;5014753;28;20171;-64
2021/01/04 08:39:22;;;;;;;19.73;18.75;;;3.60;99.90;;;;;;5014874;28;20171;-64
2021/01/04 08:42:03;;;;;;;29.03;27.73;;;3.70;99.90;;;;;;5014738;28;20269;-64
2021/01/04 08:44:30;;;;;;;27.02;25.92;;;3.70;99.90;;;;;;5014847;28;20202;-65
2021/01/04 08:47:15;;;;;;;27.48;26.27;;;3.70;99.90;;;;;;5014424;28;20190;-64
2021/01/04 08:49:46;;;;;;;29.83;28.63;;;3.70;99.90;;;;;;5014819;28;20158;-65
2021/01/04 08:52:17;;;;;;;22.92;22.02;;;3.80;99.90;;;;;;5014629;28;20190;-64
2021/01/04 08:54:43;;;;;;;27.17;25.88;;;3.80;99.70;;;;;;5046354;28;20175;-65
2021/01/04 08:57:15;;;;;;;32.67;31.47;;;3.80;99.80;;;;;;5014103;28;20229;-64
2021/01/04 09:00:03;;;;;;;23.67;22.20;;;3.80;99.80;;;;;;5014497;28;20178;-64
2021/01/04 09:02:32;;;;;;;20.75;19.40;;;3.80;99.90;;;;;;5014668;28;20206;-64
2021/01/04 09:05:00;;;;;;;21.40;20.10;;;3.70;99.90;;;;;;5014822;28;20169;-64
2021/01/04 09:07:27;;;;;;;26.92;25.63;;;3.80;99.90;;;;;;5013997;28;20674;-64
2021/01/04 09:10:14;;;;;;;30.27;29.13;;;3.80;99.90;;;;;;5011735;28;20201;-65
2021/01/04 09:12:45;;;;;;;27.80;26.50;;;3.80;99.90;;;;;;4994406;28;20255;-64
2021/01/04 09:15:22;;;;;;;32.90;31.25;;;3.90;99.80;;;;;;4994702;28;20511;-64
2021/01/04 09:17:59;;;;;;;23.42;22.33;;;3.80;99.20;;;;;;4994547;28;20192;-65
2021/01/04 09:20:46;;;;;;;24.13;22.92;;;3.80;98.80;;;;;;4994593;28;20171;-64
2021/01/04 09:23:24;;;;;;;23.20;21.80;;;3.90;99.90;;;;;;4994813;28;20238;-64
2021/01/04 09:25:54;;;;;;;31.45;29.63;;;3.90;97.70;;;;;;4994721;28;20649;-65
2021/01/04 09:28:23;;;;;;;28.52;27.23;;;3.90;99.90;;;;;;4994923;28;20192;-64
2021/01/04 09:30:50;;;;;;;32.22;30.83;;;3.80;98.00;;;;;;4994578;28;20168;-64
2021/01/04 09:33:22;;;;;;;32.67;31.38;;;3.90;98.70;;;;;;4993305;28;20234;-64
2021/01/04 09:35:48;;;;;;;32.80;31.55;;;3.80;98.20;;;;;;4994503;28;20176;-65
2021/01/04 09:38:23;;;;;;;40.88;39.00;;;3.90;97.50;;;;;;4994365;28;20191;-64
2021/01/04 09:41:03;;;;;;;29.00;27.65;;;3.90;98.10;;;;;;4994377;28;20226;-65
2021/01/04 09:43:32;;;;;;;27.85;26.65;;;4.00;98.00;;;;;;4994779;28;20230;-65
2021/01/04 09:46:25;;;;;;;27.75;26.52;;;4.00;96.60;;;;;;4994118;28;20179;-65
2021/01/04 09:49:28;;;;;;;26.23;25.02;;;4.00;96.50;;;;;;4994186;28;20550;-65
2021/01/04 09:52:04;;;;;;;22.00;21.20;;;4.00;95.80;;;;;;4994010;28;20191;-65
2021/01/04 09:54:44;;;;;;;37.72;36.28;;;3.90;94.80;;;;;;4994492;28;20210;-64
2021/01/04 09:57:10;;;;;;;28.85;27.33;;;3.90;96.80;;;;;;4993898;28;20203;-65
2021/01/04 09:59:43;;;;;;;26.73;25.83;;;3.90;96.10;;;;;;4994117;28;20199;-64
2021/01/04 10:02:28;;;;;;;27.77;26.58;;;3.90;96.00;;;;;;4994276;28;20642;-64
2021/01/04 10:05:06;;;;;;;25.73;24.63;;;3.90;96.10;;;;;;4994413;28;20171;-64
2021/01/04 10:07:33;;;;;;;29.52;28.23;;;3.90;96.00;;;;;;4993627;28;20219;-64
2021/01/04 10:09:58;;;;;;;26.23;25.13;;;3.80;96.20;;;;;;4993866;28;20172;-65
2021/01/04 10:12:27;;;;;;;27.67;26.63;;;3.90;96.90;;;;;;4994469;28;20734;-64
2021/01/04 10:14:55;;;;;;;26.00;24.85;;;3.90;96.80;;;;;;4994319;28;20223;-65
2021/01/04 10:17:32;;;;;;;27.52;26.33;;;3.90;97.40;;;;;;4993880;28;20212;-65
2021/01/04 10:20:06;;;;;;;24.42;23.52;;;3.90;96.50;;;;;;4996151;28;20716;-64
2021/01/04 10:22:41;;;;;;;27.65;26.55;;;3.80;95.30;;;;;;4994857;28;20215;-65
2021/01/04 10:25:28;;;;;;;29.85;28.75;;;3.80;95.70;;;;;;4992050;28;20174;-66
2021/01/04 10:27:55;;;;;;;28.80;27.80;;;3.90;96.60;;;;;;4995386;28;20558;-65
2021/01/04 10:30:25;;;;;;;25.17;24.17;;;3.80;96.30;;;;;;4994952;28;20174;-64
2021/01/04 10:33:01;;;;;;;23.10;22.20;;;3.90;96.70;;;;;;4995144;28;20186;-65
2021/01/04 10:35:26;;;;;;;24.55;23.65;;;3.90;96.60;;;;;;4995234;28;20180;-66
2021/01/04 10:37:55;;;;;;;18.63;17.83;;;3.90;97.20;;;;;;4994926;28;20270;-65
2021/01/04 10:40:23;;;;;;;22.58;21.63;;;3.90;97.30;;;;;;4995189;28;20175;-65
2021/01/04 10:43:00;;;;;;;27.30;26.20;;;3.90;97.10;;;;;;4995053;28;20230;-65
2021/01/04 10:45:38;;;;;;;26.65;25.58;;;3.80;95.90;;;;;;4995036;28;20180;-65
2021/01/04 10:48:25;;;;;;;26.42;25.52;;;3.90;96.20;;;;;;4994959;28;20222;-65
2021/01/04 10:50:54;;;;;;;21.33;19.73;;;3.90;96.20;;;;;;4995048;28;20204;-64
2021/01/04 10:53:33;;;;;;;30.20;29.10;;;3.90;95.80;;;;;;4994818;28;20183;-64
2021/01/04 10:56:17;;;;;;;33.72;32.53;;;4.00;96.70;;;;;;4994513;28;20182;-65
2021/01/04 10:58:46;;;;;;;33.00;31.60;;;3.90;96.00;;;;;;4994704;28;20831;-65
2021/01/04 11:01:16;;;;;;;28.80;27.58;;;3.90;96.30;;;;;;4994810;28;20590;-66
2021/01/04 11:03:52;;;;;;;26.63;25.63;;;4.00;96.60;;;;;;4994768;28;20176;-66
2021/01/04 11:06:24;;;;;;;26.77;25.77;;;4.00;96.90;;;;;;4994287;28;20183;-66
2021/01/04 11:08:50;;;;;;;29.85;28.80;;;3.90;97.50;;;;;;4994394;28;20207;-66
2021/01/04 11:11:36;;;;;;;25.70;24.80;;;4.00;98.60;;;;;;4994593;28;20179;-65
2021/01/04 11:14:06;;;;;;;20.67;19.80;;;3.90;99.20;;;;;;5011751;28;20761;-64
2021/01/04 11:16:48;;;;;;;25.45;24.55;;;3.90;99.80;;;;;;5013822;28;20260;-65
2021/01/04 11:19:25;;;;;;;23.40;22.42;;;3.60;99.90;;;;;;5013945;28;20743;-66
2021/01/04 11:21:51;;;;;;;24.83;23.38;;;3.70;99.90;;;;;;5013972;28;20202;-65
2021/01/04 11:24:16;;;;;;;20.40;19.70;;;3.80;99.90;;;;;;5014154;28;20179;-66
2021/01/04 11:26:43;;;;;;;23.37;22.30;;;3.70;99.90;;;;;;5013819;28;20171;-65
2021/01/04 11:29:09;;;;;;;24.13;23.23;;;3.70;99.90;;;;;;5013979;28;20191;-65
2021/01/04 11:31:38;;;;;;;23.67;22.83;;;3.70;99.90;;;;;;5013989;28;20671;-65
2021/01/04 11:34:04;;;;;;;30.45;29.35;;;3.70;99.90;;;;;;5013897;28;20194;-65
2021/01/04 11:36:31;;;;;;;32.90;31.60;;;3.60;99.90;;;;;;5013138;28;20258;-65
2021/01/04 11:38:56;;;;;;;31.08;29.98;;;3.60;99.90;;;;;;5013615;28;20286;-66
2021/01/04 11:41:22;;;;;;;31.50;30.10;;;3.50;99.90;;;;;;5013569;28;20286;-65
2021/01/04 11:43:48;;;;;;;30.93;29.83;;;3.50;99.90;;;;;;5013557;28;20195;-65
2021/01/04 11:46:15;;;;;;;25.63;24.60;;;3.50;99.90;;;;;;5013323;28;20171;-64
2021/01/04 11:48:41;;;;;;;36.17;34.75;;;3.50;99.90;;;;;;5013340;28;20191;-64
2021/01/04 11:51:07;;;;;;;24.20;23.15;;;3.50;99.90;;;;;;5013494;28;20181;-64
2021/01/04 11:53:33;;;;;;;29.83;28.80;;;3.50;99.90;;;;;;5013476;28;20681;-64
2021/01/04 11:55:58;;;;;;;36.23;34.83;;;3.50;99.90;;;;;;5012915;28;20415;-65
2021/01/04 11:58:24;;;;;;;40.70;39.30;;;3.40;99.90;;;;;;5013246;28;20191;-65
2021/01/04 12:00:50;;;;;;;32.37;31.03;;;3.40;99.90;;;;;;5013147;28;20461;-65
2021/01/04 12:03:17;;;;;;;30.13;28.73;;;3.50;99.90;;;;;;5013105;28;20684;-65
2021/01/04 12:05:42;;;;;;;24.73;23.80;;;3.40;99.90;;;;;;5012282;28;20178;-65
2021/01/04 12:08:08;;;;;;;25.53;24.40;;;3.40;99.90;;;;;;5013048;28;20199;-65
2021/01/04 12:10:34;;;;;;;24.47;23.53;;;3.40;99.90;;;;;;5012642;28;20515;-65
2021/01/04 12:13:00;;;;;;;33.50;31.30;;;3.40;99.90;;;;;;5013251;28;20412;-66
2021/01/04 12:15:26;;;;;;;33.33;31.92;;;3.40;99.90;;;;;;5012532;28;20818;-65
2021/01/04 12:17:52;;;;;;;38.50;37.10;;;3.50;99.90;;;;;;5012667;28;20264;-66
2021/01/04 12:20:18;;;;;;;32.23;30.60;;;3.50;99.90;;;;;;5012964;28;20809;-65
2021/01/04 12:22:43;;;;;;;33.93;32.73;;;3.50;99.90;;;;;;5012696;28;20206;-65
2021/01/04 12:25:09;;;;;;;30.23;29.03;;;3.40;99.90;;;;;;5012640;28;20426;-65
2021/01/04 12:27:35;;;;;;;45.55;42.33;;;3.40;99.90;;;;;;5012372;28;20713;-65
2021/01/04 12:30:02;;;;;;;34.77;33.47;;;3.40;99.90;;;;;;5012632;28;20175;-66
2021/01/04 12:32:30;;;;;;;34.28;33.08;;;3.40;99.90;;;;;;5012657;28;20211;-65
2021/01/04 12:34:56;;;;;;;38.13;36.72;;;3.50;99.90;;;;;;5012603;28;20183;-65
2021/01/04 12:37:23;;;;;;;34.77;33.50;;;3.50;99.90;;;;;;5012424;28;20199;-65
2021/01/04 12:39:48;;;;;;;36.03;34.78;;;3.50;99.90;;;;;;5012429;28;20414;-65
2021/01/04 12:42:14;;;;;;;26.93;25.93;;;3.40;99.90;;;;;;5012493;28;20209;-65
2021/01/04 12:44:40;;;;;;;29.75;28.65;;;3.50;99.90;;;;;;5012519;28;20294;-65
2021/01/04 12:47:07;;;;;;;33.93;32.77;;;3.40;99.90;;;;;;5012053;28;20254;-64
2021/01/04 12:49:33;;;;;;;38.67;37.08;;;3.50;99.90;;;;;;5011769;28;20171;-65
2021/01/04 12:52:00;;;;;;;34.67;33.40;;;3.50;99.90;;;;;;5012169;28;20641;-64
2021/01/04 12:54:28;;;;;;;23.75;22.85;;;3.50;99.90;;;;;;5012284;28;20179;-65
2021/01/04 12:56:57;;;;;;;33.63;31.90;;;3.40;99.90;;;;;;5012060;28;20183;-65
2021/01/04 12:59:25;;;;;;;30.98;29.38;;;3.50;99.90;;;;;;5012383;28;20202;-65
2021/01/04 13:01:52;;;;;;;30.13;29.02;;;3.50;99.90;;;;;;5011888;28;20203;-65
2021/01/04 13:04:27;;;;;;;31.50;30.40;;;3.50;99.90;;;;;;5011997;28;20258;-65
2021/01/04 13:06:55;;;;;;;31.52;29.80;;;3.50;99.90;;;;;;5011670;28;20175;-65
2021/01/04 13:09:21;;;;;;;35.08;33.55;;;3.60;99.90;;;;;;5012105;28;20171;-66
2021/01/04 13:11:49;;;;;;;29.87;28.47;;;3.60;99.90;;;;;;5012038;28;20233;-64
2021/01/04 13:14:15;;;;;;;28.83;27.58;;;3.70;99.90;;;;;;5011967;28;20924;-64
2021/01/04 13:16:41;;;;;;;31.95;30.73;;;3.60;99.90;;;;;;5011810;28;20175;-65
2021/01/04 13:19:08;;;;;;;27.60;26.50;;;3.70;99.90;;;;;;5011848;28;20198;-65
2021/01/04 13:21:36;;;;;;;33.08;31.75;;;3.60;99.90;;;;;;5011770;28;20207;-65